Time;durP1;ratioP1;P1;durP2;ratioP2;P2;SDS_P1;SDS_P2;PMS_P1;PMS_P2;Temp;Humidity;BMP_temperature;BMP_pressure;BME280_temperature;BME280_humidity;BME280_pressure;Samples;Min_cycle;Max_cycle;Signal;HPM_P1;HPM_P2
2022/03/05 00:01:32;;;;;;;64.55;36.75;;;;;;;;;;5092600;28;20076;-49
2022/03/05 00:03:58;;;;;;;50.47;25.92;;;;;;;;;;5093009;28;20028;-50
2022/03/05 00:06:24;;;;;;;66.07;33.42;;;;;;;;;;5092897;28;20027;-50
2022/03/05 00:08:51;;;;;;;45.55;26.15;;;;;;;;;;5075090;28;20078;-47
2022/03/05 00:11:19;;;;;;;51.47;28.13;;;;;;;;;;5092923;28;20058;-50
2022/03/05 00:13:45;;;;;;;52.42;29.00;;;;;;;;;;5092752;28;20516;-49
2022/03/05 00:16:11;;;;;;;51.78;29.05;;;;;;;;;;5092762;28;20353;-49
2022/03/05 00:18:37;;;;;;;57.53;31.58;;;;;;;;;;5092873;28;20385;-52
2022/03/05 00:21:03;;;;;;;61.65;32.10;;;;;;;;;;5092809;28;20044;-47
2022/03/05 00:23:30;;;;;;;56.63;32.90;;;;;;;;;;5083726;28;20062;-49
2022/03/05 00:25:56;;;;;;;49.38;28.83;;;;;;;;;;5092110;28;20078;-51
2022/03/05 00:28:22;;;;;;;47.53;28.25;;;;;;;;;;5093734;28;20080;-51
2022/03/05 00:30:48;;;;;;;60.80;34.05;;;;;;;;;;5096039;28;20047;-51
2022/03/05 00:33:15;;;;;;;50.72;29.67;;;;;;;;;;5078864;28;20090;-48
2022/03/05 00:35:46;;;;;;;52.30;28.33;;;;;;;;;;5075879;28;20085;-50
2022/03/05 00:38:12;;;;;;;59.80;31.17;;;;;;;;;;5076104;28;20029;-49
2022/03/05 00:40:39;;;;;;;53.38;28.10;;;;;;;;;;5075788;28;20029;-51
2022/03/05 00:43:05;;;;;;;54.10;30.48;;;;;;;;;;5075752;28;20037;-50
2022/03/05 00:45:34;;;;;;;56.42;31.20;;;;;;;;;;5075628;28;20461;-50
2022/03/05 00:48:00;;;;;;;59.88;32.72;;;;;;;;;;5075602;28;20551;-47
2022/03/05 00:50:26;;;;;;;54.08;28.63;;;;;;;;;;5075636;28;20086;-50
2022/03/05 00:52:52;;;;;;;52.17;27.02;;;;;;;;;;5075858;28;20024;-50
2022/03/05 00:55:18;;;;;;;47.50;26.02;;;;;;;;;;5075508;28;20497;-49
2022/03/05 00:57:44;;;;;;;54.15;28.95;;;;;;;;;;5075712;28;20024;-50
2022/03/05 01:00:11;;;;;;;42.78;24.48;;;;;;;;;;5075494;28;20052;-49
2022/03/05 01:02:37;;;;;;;50.95;25.73;;;;;;;;;;5075448;28;20048;-48
2022/03/05 01:05:03;;;;;;;47.97;26.42;;;;;;;;;;5075430;28;20062;-50
2022/03/05 01:07:29;;;;;;;49.22;26.60;;;;;;;;;;5075433;28;20075;-48
2022/03/05 01:09:55;;;;;;;55.08;28.60;;;;;;;;;;5075249;28;20016;-51
2022/03/05 01:12:24;;;;;;;49.83;26.77;;;;;;;;;;5075411;28;20029;-48
2022/03/05 01:14:50;;;;;;;52.90;29.13;;;;;;;;;;5075264;28;20056;-50
2022/03/05 01:17:16;;;;;;;47.40;26.75;;;;;;;;;;5075135;28;20106;-50
2022/03/05 01:19:43;;;;;;;44.72;25.45;;;;;;;;;;5075168;28;20021;-49
2022/03/05 01:22:09;;;;;;;46.00;24.83;;;;;;;;;;5075175;28;20406;-47
2022/03/05 01:24:35;;;;;;;44.08;25.08;;;;;;;;;;5075175;28;20104;-47
2022/03/05 01:27:01;;;;;;;44.15;25.95;;;;;;;;;;5074937;28;20040;-49
2022/03/05 01:29:27;;;;;;;47.65;26.65;;;;;;;;;;5075110;28;20077;-47
2022/03/05 01:31:53;;;;;;;50.70;29.42;;;;;;;;;;5074733;28;20032;-49
2022/03/05 01:34:20;;;;;;;44.50;25.27;;;;;;;;;;5074875;28;20077;-48
2022/03/05 01:36:46;;;;;;;47.60;24.77;;;;;;;;;;5075094;28;20380;-49
2022/03/05 01:39:12;;;;;;;46.80;24.33;;;;;;;;;;5074804;28;20032;-49
2022/03/05 01:41:38;;;;;;;41.78;24.58;;;;;;;;;;5074015;28;20028;-48
2022/03/05 01:44:04;;;;;;;45.28;25.75;;;;;;;;;;5074589;28;20582;-50
2022/03/05 01:46:32;;;;;;;43.65;25.75;;;;;;;;;;5074470;28;20028;-49
2022/03/05 01:48:58;;;;;;;44.63;25.52;;;;;;;;;;5074517;28;20457;-49
2022/03/05 01:51:24;;;;;;;37.88;22.85;;;;;;;;;;5074528;28;20491;-50
2022/03/05 01:53:51;;;;;;;41.28;24.65;;;;;;;;;;5074583;28;20013;-49
2022/03/05 01:56:19;;;;;;;41.38;22.58;;;;;;;;;;5074263;28;20039;-48
2022/03/05 01:58:46;;;;;;;39.75;23.92;;;;;;;;;;5074463;28;20429;-48
2022/03/05 02:01:12;;;;;;;38.38;23.15;;;;;;;;;;5074094;28;20067;-48
2022/03/05 02:03:41;;;;;;;40.25;22.98;;;;;;;;;;5074163;28;20472;-48
2022/03/05 02:06:07;;;;;;;42.20;23.20;;;;;;;;;;5074375;28;20024;-50
2022/03/05 02:08:33;;;;;;;43.05;23.33;;;;;;;;;;5074181;28;20431;-49
2022/03/05 02:10:59;;;;;;;44.17;24.27;;;;;;;;;;5074016;28;20525;-48
2022/03/05 02:13:27;;;;;;;40.75;23.30;;;;;;;;;;5074232;28;20036;-49
2022/03/05 02:15:53;;;;;;;43.03;22.30;;;;;;;;;;5073916;28;20024;-49
2022/03/05 02:18:19;;;;;;;40.25;22.77;;;;;;;;;;5074220;28;20017;-48
2022/03/05 02:20:46;;;;;;;43.08;24.27;;;;;;;;;;5073975;28;20035;-49
2022/03/05 02:23:12;;;;;;;44.15;25.45;;;;;;;;;;5073970;28;20020;-50
2022/03/05 02:25:38;;;;;;;47.55;24.33;;;;;;;;;;5073719;28;20520;-49
2022/03/05 02:28:04;;;;;;;44.83;25.02;;;;;;;;;;5073776;28;20039;-50
2022/03/05 02:30:30;;;;;;;42.75;24.77;;;;;;;;;;5073586;28;20183;-50
2022/03/05 02:32:56;;;;;;;46.80;24.33;;;;;;;;;;5073847;28;20029;-49
2022/03/05 02:35:22;;;;;;;43.20;24.60;;;;;;;;;;5073530;28;20021;-50
2022/03/05 02:37:48;;;;;;;39.92;22.52;;;;;;;;;;5073575;28;20025;-48
2022/03/05 02:40:14;;;;;;;49.17;26.40;;;;;;;;;;5073480;28;20032;-48
2022/03/05 02:42:40;;;;;;;41.63;24.90;;;;;;;;;;5073829;28;20077;-47
2022/03/05 02:45:07;;;;;;;42.90;25.17;;;;;;;;;;5073367;28;20484;-47
2022/03/05 02:47:33;;;;;;;43.30;22.98;;;;;;;;;;5073312;28;20349;-48
2022/03/05 02:49:59;;;;;;;41.50;24.08;;;;;;;;;;5073362;28;20025;-49
2022/03/05 02:52:25;;;;;;;40.25;23.77;;;;;;;;;;5072853;28;20028;-48
2022/03/05 02:54:51;;;;;;;39.78;23.20;;;;;;;;;;5073362;28;20024;-48
2022/03/05 02:57:17;;;;;;;42.55;25.73;;;;;;;;;;5073242;28;20024;-49
2022/03/05 02:59:43;;;;;;;49.58;26.25;;;;;;;;;;5073341;28;20029;-48
2022/03/05 03:02:12;;;;;;;58.15;27.08;;;;;;;;;;5073142;28;20049;-49
2022/03/05 03:04:38;;;;;;;50.40;28.55;;;;;;;;;;5073097;28;20493;-48
2022/03/05 03:07:04;;;;;;;45.15;26.33;;;;;;;;;;5073134;28;20044;-49
2022/03/05 03:09:32;;;;;;;49.00;27.63;;;;;;;;;;5073075;28;20052;-47
2022/03/05 03:11:58;;;;;;;44.25;25.85;;;;;;;;;;5073082;28;20025;-50
2022/03/05 03:14:24;;;;;;;48.20;26.45;;;;;;;;;;5073132;28;20060;-49
2022/03/05 03:16:50;;;;;;;45.13;26.00;;;;;;;;;;5072940;28;20031;-49
2022/03/05 03:19:16;;;;;;;50.28;27.17;;;;;;;;;;5073062;28;20025;-48
2022/03/05 03:21:42;;;;;;;43.72;24.95;;;;;;;;;;5073049;28;20024;-50
2022/03/05 03:24:09;;;;;;;46.65;25.83;;;;;;;;;;5073185;28;20353;-49
2022/03/05 03:26:35;;;;;;;48.20;26.27;;;;;;;;;;5072769;28;20021;-49
2022/03/05 03:29:03;;;;;;;44.92;25.42;;;;;;;;;;5073146;28;20056;-49
2022/03/05 03:31:29;;;;;;;49.88;26.23;;;;;;;;;;5073089;28;20494;-48
2022/03/05 03:33:58;;;;;;;54.03;27.48;;;;;;;;;;5073115;28;20032;-50
2022/03/05 03:36:24;;;;;;;51.85;26.38;;;;;;;;;;5054616;28;20058;-49
2022/03/05 03:38:50;;;;;;;49.65;27.23;;;;;;;;;;5072923;28;20107;-49
2022/03/05 03:41:16;;;;;;;47.42;26.17;;;;;;;;;;5072765;28;20112;-48
2022/03/05 03:43:42;;;;;;;47.22;25.70;;;;;;;;;;5072826;28;20500;-49
2022/03/05 03:46:08;;;;;;;45.03;25.70;;;;;;;;;;5072817;28;20108;-49
2022/03/05 03:48:34;;;;;;;42.75;24.67;;;;;;;;;;5072777;28;20039;-49
2022/03/05 03:51:00;;;;;;;45.55;25.92;;;;;;;;;;5072765;28;20020;-49
2022/03/05 03:53:26;;;;;;;47.63;25.85;;;;;;;;;;5072744;28;20033;-48
2022/03/05 03:55:52;;;;;;;41.45;23.75;;;;;;;;;;5072624;28;20017;-50
2022/03/05 03:58:18;;;;;;;40.17;23.60;;;;;;;;;;5072695;28;20035;-48
2022/03/05 04:00:44;;;;;;;48.17;26.17;;;;;;;;;;5072472;28;20052;-48
2022/03/05 04:03:10;;;;;;;51.70;26.15;;;;;;;;;;5073508;28;20020;-47
2022/03/05 04:05:36;;;;;;;59.97;27.38;;;;;;;;;;5058167;28;20380;-50
2022/03/05 04:10:47;;;;;;;53.15;27.02;;;;;;;;;;5076864;28;20081;-48
2022/03/05 04:13:14;;;;;;;51.05;26.85;;;;;;;;;;5076284;28;20503;-49
2022/03/05 04:15:40;;;;;;;50.45;25.75;;;;;;;;;;5076256;28;20020;-51
2022/03/05 04:18:06;;;;;;;50.25;26.70;;;;;;;;;;5076248;28;20035;-50
2022/03/05 04:20:33;;;;;;;45.85;25.55;;;;;;;;;;5076244;28;20096;-49
2022/03/05 04:22:59;;;;;;;51.85;28.02;;;;;;;;;;5076212;28;20027;-49
2022/03/05 04:25:26;;;;;;;53.25;26.85;;;;;;;;;;5076012;28;20062;-47
2022/03/05 04:27:54;;;;;;;49.85;27.38;;;;;;;;;;5075897;28;20032;-50
2022/03/05 04:30:20;;;;;;;57.88;28.20;;;;;;;;;;5075930;28;20020;-49
2022/03/05 04:32:46;;;;;;;49.72;27.02;;;;;;;;;;5061445;28;20105;-48
2022/03/05 04:35:13;;;;;;;48.15;25.77;;;;;;;;;;5095932;28;20023;-49
2022/03/05 04:37:39;;;;;;;51.08;26.30;;;;;;;;;;5096126;28;20032;-49
2022/03/05 04:40:06;;;;;;;48.35;27.15;;;;;;;;;;5096024;28;20024;-50
2022/03/05 04:42:32;;;;;;;47.78;25.25;;;;;;;;;;5095430;28;20024;-48
2022/03/05 04:44:59;;;;;;;56.90;28.30;;;;;;;;;;5096142;28;20024;-51
2022/03/05 04:47:27;;;;;;;57.78;27.40;;;;;;;;;;5095842;28;20075;-48
2022/03/05 04:49:53;;;;;;;54.63;26.77;;;;;;;;;;5095882;28;20051;-48
2022/03/05 04:52:19;;;;;;;56.92;28.35;;;;;;;;;;5095984;28;20387;-47
2022/03/05 04:54:45;;;;;;;53.75;27.67;;;;;;;;;;5083958;28;20025;-50
2022/03/05 04:57:12;;;;;;;47.00;26.92;;;;;;;;;;5057117;28;20404;-48
2022/03/05 04:59:38;;;;;;;49.65;27.45;;;;;;;;;;5075308;28;20024;-48
2022/03/05 05:02:04;;;;;;;56.47;30.80;;;;;;;;;;5075101;28;20101;-49
2022/03/05 05:04:30;;;;;;;64.97;32.30;;;;;;;;;;5075414;28;20029;-47
2022/03/05 05:06:56;;;;;;;59.05;31.45;;;;;;;;;;5075430;28;20127;-47
2022/03/05 05:09:22;;;;;;;63.20;31.10;;;;;;;;;;5075340;28;20081;-48
2022/03/05 05:11:49;;;;;;;56.88;31.52;;;;;;;;;;5075066;28;20472;-47
2022/03/05 05:14:15;;;;;;;64.78;32.85;;;;;;;;;;5074910;28;20032;-47
2022/03/05 05:16:41;;;;;;;63.75;34.15;;;;;;;;;;5074587;28;20026;-47
2022/03/05 05:19:27;;;;;;;66.85;34.13;;;;;;;;;;5075427;28;20150;-47
2022/03/05 05:21:54;;;;;;;61.97;32.90;;;;;;;;;;5075161;28;20025;-47
2022/03/05 05:24:20;;;;;;;59.78;31.67;;;;;;;;;;5075090;28;20461;-47
2022/03/05 05:26:47;;;;;;;56.53;30.80;;;;;;;;;;5074769;28;20032;-47
2022/03/05 05:29:13;;;;;;;54.08;29.55;;;;;;;;;;5074919;28;20025;-47
2022/03/05 05:31:39;;;;;;;52.13;29.67;;;;;;;;;;5075188;28;20031;-48
2022/03/05 05:34:10;;;;;;;55.00;29.92;;;;;;;;;;5074990;28;20024;-48
2022/03/05 05:36:39;;;;;;;56.78;30.55;;;;;;;;;;5075060;28;20021;-47
2022/03/05 05:39:08;;;;;;;54.25;31.20;;;;;;;;;;5074859;28;20100;-49
2022/03/05 05:41:35;;;;;;;60.25;31.65;;;;;;;;;;5074577;28;20059;-47
2022/03/05 05:44:02;;;;;;;59.53;32.28;;;;;;;;;;5074489;28;20468;-48
2022/03/05 05:46:28;;;;;;;58.40;30.80;;;;;;;;;;5074756;28;20421;-48
2022/03/05 05:48:55;;;;;;;71.10;35.38;;;;;;;;;;5074758;28;20504;-49
2022/03/05 05:51:21;;;;;;;79.18;41.75;;;;;;;;;;5074503;28;20027;-48
2022/03/05 05:53:47;;;;;;;66.60;37.67;;;;;;;;;;5074472;28;20031;-48
2022/03/05 05:56:16;;;;;;;75.07;37.55;;;;;;;;;;5074392;28;20023;-48
2022/03/05 05:58:42;;;;;;;72.32;37.83;;;;;;;;;;5074270;28;20021;-48
2022/03/05 06:01:08;;;;;;;65.00;37.20;;;;;;;;;;5074223;28;20120;-48
2022/03/05 06:03:34;;;;;;;67.25;34.78;;;;;;;;;;5074310;28;20033;-48
2022/03/05 06:06:01;;;;;;;64.72;34.83;;;;;;;;;;5074223;28;20093;-48
2022/03/05 06:08:27;;;;;;;61.97;33.35;;;;;;;;;;5074074;28;20052;-47
2022/03/05 06:10:54;;;;;;;54.28;30.63;;;;;;;;;;5056085;28;20032;-49
2022/03/05 06:13:21;;;;;;;50.25;29.13;;;;;;;;;;5074067;28;20086;-49
2022/03/05 06:15:47;;;;;;;54.67;30.27;;;;;;;;;;5074168;28;20021;-47
2022/03/05 06:18:13;;;;;;;58.40;29.88;;;;;;;;;;5074050;28;20233;-48
2022/03/05 06:20:39;;;;;;;53.83;29.17;;;;;;;;;;5074031;28;20017;-47
2022/03/05 06:23:12;;;;;;;58.13;29.90;;;;;;;;;;5074086;28;20105;-48
2022/03/05 06:25:38;;;;;;;57.20;30.83;;;;;;;;;;5073792;28;20020;-48
2022/03/05 06:28:07;;;;;;;60.53;32.00;;;;;;;;;;5073622;28;20047;-48
2022/03/05 06:30:33;;;;;;;56.92;31.17;;;;;;;;;;5073885;28;20040;-49
2022/03/05 06:32:59;;;;;;;63.35;34.80;;;;;;;;;;5073891;28;20035;-48
2022/03/05 06:35:26;;;;;;;64.85;34.35;;;;;;;;;;5073860;28;20056;-48
2022/03/05 06:37:52;;;;;;;63.80;31.58;;;;;;;;;;5073857;28;20024;-48
2022/03/05 06:40:18;;;;;;;66.20;34.47;;;;;;;;;;5073952;28;20415;-48
2022/03/05 06:42:47;;;;;;;61.17;33.38;;;;;;;;;;5073331;28;20021;-48
2022/03/05 06:45:13;;;;;;;62.08;32.95;;;;;;;;;;5073771;28;20421;-47
2022/03/05 06:47:39;;;;;;;52.50;31.63;;;;;;;;;;5073634;28;20120;-48
2022/03/05 06:50:07;;;;;;;60.35;32.95;;;;;;;;;;5073632;28;20021;-49
2022/03/05 06:52:33;;;;;;;64.57;33.15;;;;;;;;;;5073435;28;20024;-48
2022/03/05 06:54:59;;;;;;;69.25;37.17;;;;;;;;;;5073449;28;20503;-48
2022/03/05 06:57:26;;;;;;;65.15;37.28;;;;;;;;;;5073271;28;20078;-47
2022/03/05 06:59:56;;;;;;;62.50;36.53;;;;;;;;;;5073106;28;20113;-48
2022/03/05 07:02:23;;;;;;;59.20;32.57;;;;;;;;;;5073268;28;20071;-47
2022/03/05 07:04:49;;;;;;;50.88;32.97;;;;;;;;;;5073249;28;20453;-48
2022/03/05 07:07:16;;;;;;;54.75;33.67;;;;;;;;;;5073286;28;20028;-47
2022/03/05 07:09:42;;;;;;;46.88;28.25;;;;;;;;;;5072787;28;20102;-49
2022/03/05 07:12:09;;;;;;;45.92;28.83;;;;;;;;;;5072487;28;20017;-48
2022/03/05 07:14:38;;;;;;;40.90;27.48;;;;;;;;;;5072698;28;20028;-49
2022/03/05 07:17:04;;;;;;;41.30;26.95;;;;;;;;;;5072766;28;20041;-49
2022/03/05 07:19:31;;;;;;;35.55;24.70;;;;;;;;;;5072669;28;20111;-49
2022/03/05 07:21:59;;;;;;;42.88;24.60;;;;;;;;;;5072658;28;20021;-48
2022/03/05 07:24:25;;;;;;;33.65;22.73;;;;;;;;;;5072651;28;20017;-48
2022/03/05 07:26:51;;;;;;;34.22;22.85;;;;;;;;;;5072410;28;20104;-49
2022/03/05 07:29:17;;;;;;;32.33;22.20;;;;;;;;;;5072395;28;20093;-50
2022/03/05 07:31:43;;;;;;;33.58;22.60;;;;;;;;;;5072953;28;20107;-48
2022/03/05 07:34:14;;;;;;;30.48;21.95;;;;;;;;;;5072475;28;20104;-47
2022/03/05 07:36:40;;;;;;;29.45;20.55;;;;;;;;;;5072940;28;20476;-47
2022/03/05 07:39:08;;;;;;;31.95;20.30;;;;;;;;;;5075027;28;20070;-48
2022/03/05 07:41:34;;;;;;;31.88;21.67;;;;;;;;;;5076412;28;20484;-48
2022/03/05 07:44:03;;;;;;;32.38;22.17;;;;;;;;;;5076602;28;20035;-50
2022/03/05 07:46:29;;;;;;;28.38;19.90;;;;;;;;;;5058616;28;20017;-47
2022/03/05 07:48:55;;;;;;;31.17;21.85;;;;;;;;;;5076380;28;20035;-47
2022/03/05 07:51:21;;;;;;;29.05;20.63;;;;;;;;;;5076415;28;20039;-47
2022/03/05 07:53:47;;;;;;;31.27;21.02;;;;;;;;;;5076398;28;20027;-46
2022/03/05 07:56:13;;;;;;;38.50;23.38;;;;;;;;;;5076387;28;20032;-45
2022/03/05 07:58:39;;;;;;;33.35;21.33;;;;;;;;;;5057672;28;20051;-47
2022/03/05 08:01:06;;;;;;;36.50;21.45;;;;;;;;;;5076230;28;20040;-47
2022/03/05 08:03:34;;;;;;;30.92;19.88;;;;;;;;;;5076211;28;20056;-49
2022/03/05 08:06:01;;;;;;;27.35;18.33;;;;;;;;;;5076229;28;20404;-49
2022/03/05 08:08:27;;;;;;;25.88;18.05;;;;;;;;;;5076079;28;20449;-48
2022/03/05 08:10:54;;;;;;;31.50;19.95;;;;;;;;;;5076070;28;20013;-47
2022/03/05 08:13:20;;;;;;;25.60;17.40;;;;;;;;;;5075952;28;20036;-47
2022/03/05 08:15:46;;;;;;;29.30;20.05;;;;;;;;;;5075953;28;20024;-47
2022/03/05 08:18:17;;;;;;;29.25;19.30;;;;;;;;;;5075786;28;20020;-46
2022/03/05 08:20:43;;;;;;;29.30;17.98;;;;;;;;;;5075846;28;20020;-47
2022/03/05 08:23:09;;;;;;;32.95;22.65;;;;;;;;;;5076141;28;20112;-48
2022/03/05 08:25:35;;;;;;;48.05;30.27;;;;;;;;;;5076149;28;20028;-48
2022/03/05 08:28:01;;;;;;;38.83;19.17;;;;;;;;;;5076237;28;20040;-48
2022/03/05 08:30:27;;;;;;;52.22;29.98;;;;;;;;;;5076233;28;20042;-46
2022/03/05 08:32:54;;;;;;;47.20;30.52;;;;;;;;;;5076026;28;20028;-46
2022/03/05 08:35:22;;;;;;;37.67;20.65;;;;;;;;;;5076176;28;20035;-46
2022/03/05 08:37:50;;;;;;;39.85;22.85;;;;;;;;;;5058131;28;20035;-47
2022/03/05 08:40:16;;;;;;;36.47;21.83;;;;;;;;;;5075930;28;20021;-49
2022/03/05 08:42:43;;;;;;;40.80;23.45;;;;;;;;;;5076036;28;20029;-48
2022/03/05 08:45:09;;;;;;;29.65;20.17;;;;;;;;;;5076174;28;20066;-50
2022/03/05 08:47:36;;;;;;;36.42;22.25;;;;;;;;;;5075595;28;20025;-47
2022/03/05 08:50:02;;;;;;;38.70;23.80;;;;;;;;;;5074506;28;20025;-45
2022/03/05 08:52:32;;;;;;;34.22;20.92;;;;;;;;;;5076036;28;20495;-48
2022/03/05 08:54:58;;;;;;;32.90;20.60;;;;;;;;;;5075934;28;20396;-54
2022/03/05 08:57:24;;;;;;;39.15;23.50;;;;;;;;;;5075872;28;20021;-47
2022/03/05 08:59:50;;;;;;;36.13;20.73;;;;;;;;;;5075618;28;20020;-47
2022/03/05 09:02:16;;;;;;;40.45;24.55;;;;;;;;;;5075658;28;20539;-47
2022/03/05 09:04:44;;;;;;;74.80;45.75;;;;;;;;;;5075713;28;20052;-47
2022/03/05 09:07:10;;;;;;;67.85;38.85;;;;;;;;;;5075731;28;20058;-48
2022/03/05 09:09:37;;;;;;;40.08;24.42;;;;;;;;;;5074021;28;20040;-47
2022/03/05 09:12:03;;;;;;;36.17;22.48;;;;;;;;;;5075316;28;20115;-48
2022/03/05 09:14:29;;;;;;;31.92;20.23;;;;;;;;;;5075386;28;20090;-49
2022/03/05 09:16:56;;;;;;;33.03;21.73;;;;;;;;;;5075403;28;20028;-49
2022/03/05 09:19:23;;;;;;;58.03;38.47;;;;;;;;;;5075357;28;20040;-47
2022/03/05 09:21:49;;;;;;;45.92;28.50;;;;;;;;;;5075210;28;20023;-47
2022/03/05 09:24:15;;;;;;;50.28;30.40;;;;;;;;;;5075052;28;20029;-47
2022/03/05 09:26:41;;;;;;;39.67;24.58;;;;;;;;;;5074875;28;20376;-48
2022/03/05 09:29:07;;;;;;;28.95;20.52;;;;;;;;;;5074963;28;20039;-48
2022/03/05 09:31:33;;;;;;;32.88;21.83;;;;;;;;;;5074836;28;20028;-48
2022/03/05 09:34:01;;;;;;;34.38;22.58;;;;;;;;;;5074821;28;20032;-48
2022/03/05 09:36:27;;;;;;;32.20;19.25;;;;;;;;;;5074769;28;20092;-48
2022/03/05 09:38:53;;;;;;;34.20;21.25;;;;;;;;;;5074735;28;20027;-48
2022/03/05 09:41:22;;;;;;;28.15;19.02;;;;;;;;;;5074674;28;20021;-47
2022/03/05 09:43:48;;;;;;;30.17;19.92;;;;;;;;;;5074415;28;20054;-47
2022/03/05 09:46:18;;;;;;;30.52;19.05;;;;;;;;;;5074699;28;20389;-48
2022/03/05 09:48:44;;;;;;;27.63;18.33;;;;;;;;;;5074490;28;20388;-47
2022/03/05 09:51:10;;;;;;;29.67;18.90;;;;;;;;;;5074599;28;20066;-45
2022/03/05 09:53:39;;;;;;;30.40;18.70;;;;;;;;;;5074444;28;20373;-47
2022/03/05 09:56:05;;;;;;;30.40;17.80;;;;;;;;;;5039471;28;20044;-47
2022/03/05 09:58:31;;;;;;;25.80;17.13;;;;;;;;;;5074310;28;20066;-47
2022/03/05 10:01:02;;;;;;;35.47;18.33;;;;;;;;;;5073767;28;20052;-47
2022/03/05 10:03:28;;;;;;;29.88;18.58;;;;;;;;;;5074191;28;20066;-47
2022/03/05 10:06:13;;;;;;;30.33;17.40;;;;;;;;;;5074440;28;20021;-46
2022/03/05 10:08:39;;;;;;;27.15;18.45;;;;;;;;;;5074078;28;20039;-46
2022/03/05 10:11:09;;;;;;;26.90;17.40;;;;;;;;;;5074082;28;20020;-46
2022/03/05 10:13:36;;;;;;;28.15;17.33;;;;;;;;;;5073950;28;20025;-46
2022/03/05 10:16:04;;;;;;;28.98;19.20;;;;;;;;;;5074250;28;20032;-46
2022/03/05 10:18:30;;;;;;;31.38;19.00;;;;;;;;;;5074027;28;20033;-46
2022/03/05 10:20:57;;;;;;;25.92;18.67;;;;;;;;;;5073981;28;20024;-46
2022/03/05 10:23:24;;;;;;;31.17;19.00;;;;;;;;;;5073943;28;20052;-48
2022/03/05 10:25:50;;;;;;;28.42;18.25;;;;;;;;;;5074094;28;20385;-47
2022/03/05 10:28:18;;;;;;;27.25;17.58;;;;;;;;;;5073725;28;20082;-47
2022/03/05 10:30:51;;;;;;;28.60;17.88;;;;;;;;;;5074026;28;20369;-45
2022/03/05 10:33:24;;;;;;;30.60;17.98;;;;;;;;;;5073716;28;20017;-45
2022/03/05 10:35:50;;;;;;;29.67;17.10;;;;;;;;;;5073618;28;20538;-47
2022/03/05 10:38:16;;;;;;;29.48;18.05;;;;;;;;;;5073600;28;20032;-47
2022/03/05 10:40:42;;;;;;;25.80;17.77;;;;;;;;;;5073549;28;20021;-47
2022/03/05 10:43:11;;;;;;;25.73;17.00;;;;;;;;;;5073443;28;20032;-48
2022/03/05 10:45:53;;;;;;;27.23;17.88;;;;;;;;;;5073581;28;20405;-47
2022/03/05 10:48:23;;;;;;;26.00;16.55;;;;;;;;;;5073465;28;20059;-47
2022/03/05 10:50:54;;;;;;;39.40;24.63;;;;;;;;;;5073242;28;20447;-46
2022/03/05 10:53:34;;;;;;;28.13;16.58;;;;;;;;;;5073295;28;20530;-47
2022/03/05 10:56:19;;;;;;;27.13;17.25;;;;;;;;;;5073330;28;20023;-47
2022/03/05 10:58:56;;;;;;;26.77;16.73;;;;;;;;;;5073292;28;20048;-47
2022/03/05 11:01:22;;;;;;;27.23;17.38;;;;;;;;;;5073169;28;20484;-47
2022/03/05 11:03:49;;;;;;;36.45;20.63;;;;;;;;;;5073295;28;20033;-47
2022/03/05 11:06:15;;;;;;;24.98;16.52;;;;;;;;;;5073216;28;20365;-48
2022/03/05 11:08:44;;;;;;;34.33;19.88;;;;;;;;;;5072949;28;20538;-47
2022/03/05 11:11:10;;;;;;;29.63;17.83;;;;;;;;;;5073044;28;20033;-45
2022/03/05 11:13:36;;;;;;;33.90;20.85;;;;;;;;;;5072238;28;20020;-47
2022/03/05 11:16:05;;;;;;;33.22;20.15;;;;;;;;;;5072948;28;20021;-47
2022/03/05 11:18:31;;;;;;;32.25;20.95;;;;;;;;;;5073017;28;20534;-47
2022/03/05 11:20:57;;;;;;;31.20;19.42;;;;;;;;;;5073131;28;20066;-46
2022/03/05 11:23:23;;;;;;;34.70;20.98;;;;;;;;;;5072914;28;20029;-45
2022/03/05 11:25:50;;;;;;;33.78;20.05;;;;;;;;;;5072804;28;20099;-46
2022/03/05 11:28:20;;;;;;;28.88;18.67;;;;;;;;;;5072788;28;20583;-46
2022/03/05 11:30:46;;;;;;;31.27;18.33;;;;;;;;;;5072851;28;20036;-46
2022/03/05 11:33:13;;;;;;;25.33;16.98;;;;;;;;;;5072819;28;20024;-46
2022/03/05 11:35:45;;;;;;;30.67;18.00;;;;;;;;;;5072829;28;20032;-46
2022/03/05 11:38:33;;;;;;;34.83;22.45;;;;;;;;;;5073186;28;20124;-46
2022/03/05 11:40:59;;;;;;;31.38;19.67;;;;;;;;;;5072891;28;20053;-47
2022/03/05 11:43:26;;;;;;;35.85;20.55;;;;;;;;;;5072960;28;20055;-48
2022/03/05 11:45:58;;;;;;;46.17;26.55;;;;;;;;;;5072762;28;20024;-46
2022/03/05 11:48:26;;;;;;;31.48;18.42;;;;;;;;;;5072608;28;20029;-47
2022/03/05 11:50:53;;;;;;;23.92;16.08;;;;;;;;;;5072868;28;20017;-47
2022/03/05 11:53:19;;;;;;;23.42;15.90;;;;;;;;;;5072719;28;20045;-47
2022/03/05 11:55:46;;;;;;;35.60;19.25;;;;;;;;;;5073062;28;20040;-46
2022/03/05 11:58:12;;;;;;;45.42;23.40;;;;;;;;;;5072678;28;20032;-47
2022/03/05 12:00:39;;;;;;;34.80;20.35;;;;;;;;;;5072602;28;20395;-47
2022/03/05 12:03:06;;;;;;;29.08;17.50;;;;;;;;;;5072701;28;20078;-48
2022/03/05 12:05:38;;;;;;;27.88;18.10;;;;;;;;;;5072526;28;20025;-46
2022/03/05 12:08:27;;;;;;;40.15;21.15;;;;;;;;;;5072538;28;20024;-47
2022/03/05 12:11:11;;;;;;;36.53;21.70;;;;;;;;;;5010686;28;20037;-47
2022/03/05 12:13:50;;;;;;;34.17;18.17;;;;;;;;;;5010823;28;20068;-44
2022/03/05 12:16:18;;;;;;;31.95;18.77;;;;;;;;;;5010770;28;20117;-47
2022/03/05 12:18:44;;;;;;;35.70;20.45;;;;;;;;;;5010793;28;20084;-46
2022/03/05 12:21:11;;;;;;;30.50;18.83;;;;;;;;;;5010573;28;20042;-46
2022/03/05 12:23:37;;;;;;;46.92;26.75;;;;;;;;;;5010841;28;20050;-46
2022/03/05 12:26:07;;;;;;;41.58;23.30;;;;;;;;;;5014519;28;20022;-46
2022/03/05 12:28:40;;;;;;;27.35;16.83;;;;;;;;;;5014310;28;20437;-47
2022/03/05 12:31:06;;;;;;;29.30;16.63;;;;;;;;;;4997743;28;20083;-46
2022/03/05 12:33:33;;;;;;;41.05;23.42;;;;;;;;;;5014235;28;20037;-46
2022/03/05 12:36:01;;;;;;;29.85;17.20;;;;;;;;;;5014211;28;20068;-46
2022/03/05 12:38:27;;;;;;;25.88;16.48;;;;;;;;;;5014185;28;20036;-47
2022/03/05 12:40:53;;;;;;;24.42;16.08;;;;;;;;;;5014166;28;20041;-46
2022/03/05 12:43:19;;;;;;;23.90;16.40;;;;;;;;;;5014028;28;20034;-48
2022/03/05 12:45:46;;;;;;;29.15;17.65;;;;;;;;;;4997531;28;20037;-48
2022/03/05 12:48:20;;;;;;;25.25;15.90;;;;;;;;;;5053906;28;20045;-48
2022/03/05 12:50:48;;;;;;;33.92;17.75;;;;;;;;;;5057106;28;20269;-46
2022/03/05 12:53:16;;;;;;;27.45;15.98;;;;;;;;;;5075719;28;20090;-46
2022/03/05 12:55:43;;;;;;;30.90;16.58;;;;;;;;;;5075846;28;20169;-47
2022/03/05 12:58:11;;;;;;;31.63;17.55;;;;;;;;;;5075550;28;20039;-47
2022/03/05 13:00:38;;;;;;;30.77;18.60;;;;;;;;;;5075384;28;20049;-47
2022/03/05 13:03:05;;;;;;;31.17;18.73;;;;;;;;;;5075405;28;20408;-46
2022/03/05 13:05:31;;;;;;;31.17;18.67;;;;;;;;;;5075520;28;20381;-49
2022/03/05 13:07:58;;;;;;;28.88;19.55;;;;;;;;;;5075485;28;20029;-48
2022/03/05 13:10:24;;;;;;;38.65;23.50;;;;;;;;;;5075422;28;20071;-48
2022/03/05 13:12:52;;;;;;;32.60;20.15;;;;;;;;;;5075351;28;20021;-48
2022/03/05 13:15:25;;;;;;;27.77;17.30;;;;;;;;;;5075354;28;20526;-47
2022/03/05 13:17:52;;;;;;;27.40;17.20;;;;;;;;;;5075192;28;20027;-46
2022/03/05 13:20:18;;;;;;;29.85;16.85;;;;;;;;;;5075312;28;20070;-45
2022/03/05 13:22:49;;;;;;;35.35;19.25;;;;;;;;;;5075347;28;20427;-45
2022/03/05 13:25:15;;;;;;;36.25;22.38;;;;;;;;;;5075252;28;20032;-47
2022/03/05 13:27:41;;;;;;;40.30;22.20;;;;;;;;;;5075001;28;20491;-50
2022/03/05 13:30:11;;;;;;;39.03;22.92;;;;;;;;;;5074847;28;20045;-48
2022/03/05 13:32:44;;;;;;;44.33;24.80;;;;;;;;;;5074964;28;20111;-48
2022/03/05 13:35:12;;;;;;;36.17;21.33;;;;;;;;;;5074814;28;20052;-47
2022/03/05 13:37:40;;;;;;;31.75;18.95;;;;;;;;;;5074430;28;20020;-48
2022/03/05 13:40:08;;;;;;;30.63;18.17;;;;;;;;;;5074850;28;20029;-47
2022/03/05 13:42:35;;;;;;;35.40;20.40;;;;;;;;;;5074731;28;20047;-47
2022/03/05 13:45:05;;;;;;;41.78;23.17;;;;;;;;;;5074624;28;20024;-46
2022/03/05 13:47:32;;;;;;;33.65;20.30;;;;;;;;;;5075099;28;20370;-47
2022/03/05 13:50:03;;;;;;;33.55;20.25;;;;;;;;;;5074835;28;20032;-47
2022/03/05 13:52:31;;;;;;;36.78;22.15;;;;;;;;;;5074407;28;20048;-47
2022/03/05 13:55:17;;;;;;;31.80;19.85;;;;;;;;;;5074810;28;20025;-46
2022/03/05 13:57:44;;;;;;;33.20;20.40;;;;;;;;;;5074152;28;20141;-50
2022/03/05 14:00:14;;;;;;;42.30;22.00;;;;;;;;;;5074117;28;20029;-48
2022/03/05 14:02:41;;;;;;;44.70;25.52;;;;;;;;;;5074420;28;20068;-46
2022/03/05 14:05:09;;;;;;;46.13;27.23;;;;;;;;;;5057469;28;20460;-48
2022/03/05 14:07:39;;;;;;;55.05;32.83;;;;;;;;;;5038362;28;21639;-45
2022/03/05 14:10:06;;;;;;;54.67;32.10;;;;;;;;;;5038263;28;20029;-46
2022/03/05 14:12:32;;;;;;;55.13;35.22;;;;;;;;;;5038414;28;20029;-46
2022/03/05 14:15:00;;;;;;;55.28;33.38;;;;;;;;;;5038257;28;20076;-46
2022/03/05 14:17:28;;;;;;;52.63;29.67;;;;;;;;;;5037811;28;20473;-48
2022/03/05 14:20:04;;;;;;;43.08;26.52;;;;;;;;;;5038297;28;20296;-48